createdAt,value
2024-02-17T00:00:16.305Z,90.01
2024-02-17T00:02:44.687Z,89.79
2024-02-17T00:05:13.066Z,89.92
2024-02-17T00:07:41.527Z,89.96
2024-02-17T00:10:11.970Z,90.06
2024-02-17T00:12:40.491Z,90.58
2024-02-17T00:15:10.383Z,91.23
2024-02-17T00:17:39.349Z,91.29
2024-02-17T00:20:09.777Z,91.20
2024-02-17T00:22:38.329Z,90.63
2024-02-17T00:25:07.379Z,91.04
2024-02-17T00:27:37.304Z,91.04
2024-02-17T00:30:06.852Z,91.02
2024-02-17T00:32:35.261Z,90.81
2024-02-17T00:35:03.924Z,90.34
2024-02-17T00:37:32.758Z,90.03
2024-02-17T00:40:02.763Z,90.31
2024-02-17T00:42:31.131Z,90.07
2024-02-17T00:45:00.948Z,90.04
2024-02-17T00:47:29.350Z,90.35
2024-02-17T00:49:57.896Z,89.79
2024-02-17T00:52:26.366Z,89.88
2024-02-17T00:54:54.786Z,90.02
2024-02-17T00:57:23.264Z,90.27
2024-02-17T00:59:51.683Z,90.51
2024-02-17T01:02:21.514Z,90.81
2024-02-17T01:04:50.028Z,91.20
2024-02-17T01:07:18.486Z,91.96
2024-02-17T01:09:47.026Z,92.20
2024-02-17T01:12:15.724Z,92.19
2024-02-17T01:14:47.037Z,91.92
2024-02-17T01:17:15.635Z,91.91
2024-02-17T01:19:45.789Z,91.58
2024-02-17T01:22:14.405Z,91.26
2024-02-17T01:24:44.562Z,91.40
2024-02-17T01:27:13.018Z,91.19
2024-02-17T01:29:41.504Z,90.79
2024-02-17T01:32:09.846Z,91.01
2024-02-17T01:34:38.281Z,91.16
2024-02-17T01:37:08.183Z,91.92
2024-02-17T01:39:36.609Z,91.43
2024-02-17T01:42:05.445Z,91.50
2024-02-17T01:44:33.851Z,92.41
2024-02-17T01:47:02.273Z,92.26
2024-02-17T01:49:31.264Z,92.88
2024-02-17T01:52:01.901Z,93.30
2024-02-17T01:54:31.975Z,93.78
2024-02-17T01:57:02.211Z,94.32
2024-02-17T01:59:31.638Z,94.47
2024-02-17T02:02:00.825Z,95.22
2024-02-17T02:04:29.447Z,96.32
2024-02-17T02:06:57.830Z,97.71
2024-02-17T02:09:26.444Z,98.02
2024-02-17T02:11:58.518Z,97.76
2024-02-17T02:14:27.379Z,97.31
2024-02-17T02:16:55.843Z,97.38
2024-02-17T02:19:24.420Z,97.38
2024-02-17T02:21:53.345Z,98.00
2024-02-17T02:24:21.912Z,98.23
2024-02-17T02:26:51.763Z,98.58
2024-02-17T02:29:20.326Z,98.76
2024-02-17T02:31:49.076Z,98.82
2024-02-17T02:34:17.608Z,98.94
2024-02-17T02:36:46.245Z,99.21
2024-02-17T02:39:14.789Z,99.98
2024-02-17T02:41:44.426Z,100.00
2024-02-17T02:44:14.401Z,100.00
2024-02-17T02:46:42.816Z,100.00
2024-02-17T02:49:11.306Z,100.00
2024-02-17T02:51:39.913Z,100.00
2024-02-17T02:54:08.398Z,100.00
2024-02-17T02:56:36.877Z,100.00
2024-02-17T02:59:05.382Z,100.00
2024-02-17T03:01:35.210Z,100.00
2024-02-17T03:04:03.689Z,100.00
2024-02-17T03:06:32.228Z,100.00
2024-02-17T03:09:00.697Z,100.00
2024-02-17T03:11:29.732Z,100.00
2024-02-17T03:13:58.258Z,100.00
2024-02-17T03:16:26.731Z,100.00
2024-02-17T03:18:56.628Z,100.00
2024-02-17T03:21:25.709Z,100.00
2024-02-17T03:23:54.142Z,100.00
2024-02-17T03:26:22.597Z,100.00
2024-02-17T03:28:51.107Z,100.00
2024-02-17T03:31:20.474Z,100.00
2024-02-17T03:33:49.061Z,100.00
2024-02-17T03:36:18.909Z,100.00
2024-02-17T03:38:47.354Z,100.00
2024-02-17T03:41:16.410Z,100.00
2024-02-17T03:43:44.991Z,100.00
2024-02-17T03:46:13.403Z,100.00
2024-02-17T03:48:42.078Z,100.00
2024-02-17T03:51:10.698Z,100.00
2024-02-17T03:53:40.588Z,100.00
2024-02-17T03:56:09.628Z,100.00
2024-02-17T03:58:37.925Z,100.00
2024-02-17T04:01:06.473Z,100.00
2024-02-17T04:03:34.912Z,100.00
2024-02-17T04:06:04.193Z,100.00
2024-02-17T04:08:32.749Z,100.00
2024-02-17T04:11:02.697Z,100.00
2024-02-17T04:13:31.361Z,100.00
2024-02-17T04:15:59.881Z,100.00
2024-02-17T04:18:28.643Z,100.00
2024-02-17T04:20:57.097Z,100.00
2024-02-17T04:23:25.543Z,100.00
2024-02-17T04:25:53.985Z,100.00
2024-02-17T04:28:23.811Z,100.00
2024-02-17T04:30:52.315Z,100.00
2024-02-17T04:33:20.918Z,100.00
2024-02-17T04:35:49.615Z,100.00
2024-02-17T04:38:18.036Z,100.00
2024-02-17T04:40:46.957Z,100.00
2024-02-17T04:43:15.405Z,100.00
2024-02-17T04:45:45.302Z,100.00
2024-02-17T04:48:13.906Z,100.00
2024-02-17T04:50:42.307Z,100.00
2024-02-17T04:53:10.733Z,100.00
2024-02-17T04:55:39.241Z,100.00
2024-02-17T04:58:08.183Z,100.00
2024-02-17T05:00:37.133Z,100.00
2024-02-17T05:03:09.012Z,100.00
2024-02-17T05:05:37.429Z,100.00
2024-02-17T05:08:06.646Z,100.00
2024-02-17T05:10:35.066Z,100.00
2024-02-17T05:13:03.621Z,100.00
2024-02-17T05:15:32.510Z,100.00
2024-02-17T05:18:00.943Z,100.00
2024-02-17T05:20:30.656Z,100.00
2024-02-17T05:22:59.486Z,100.00
2024-02-17T05:25:28.264Z,100.00
2024-02-17T05:27:56.666Z,100.00
2024-02-17T05:30:25.269Z,100.00
2024-02-17T05:32:53.702Z,100.00
2024-02-17T05:35:22.120Z,100.00
2024-02-17T05:37:51.950Z,100.00
2024-02-17T05:40:20.406Z,100.00
2024-02-17T05:42:48.803Z,100.00
2024-02-17T05:45:17.489Z,100.00
2024-02-17T05:47:45.905Z,100.00
2024-02-17T05:50:14.351Z,100.00
2024-02-17T05:52:42.773Z,100.00
2024-02-17T05:55:12.781Z,100.00
2024-02-17T05:57:41.599Z,100.00
2024-02-17T06:00:11.668Z,100.00
2024-02-17T06:02:40.013Z,100.00
2024-02-17T06:05:09.580Z,100.00
2024-02-17T06:07:38.794Z,100.00
2024-02-17T06:10:08.854Z,100.00
2024-02-17T06:12:38.602Z,100.00
2024-02-17T06:15:08.607Z,100.00
2024-02-17T06:17:43.974Z,100.00
2024-02-17T06:20:31.293Z,100.00
2024-02-17T06:22:59.729Z,100.00
2024-02-17T06:25:28.147Z,100.00
2024-02-17T06:27:57.922Z,100.00
2024-02-17T06:30:26.372Z,100.00
2024-02-17T06:32:55.355Z,100.00
2024-02-17T06:35:23.706Z,100.00
2024-02-17T06:37:52.385Z,100.00
2024-02-17T06:40:21.025Z,100.00
2024-02-17T06:42:49.368Z,100.00
2024-02-17T06:45:19.215Z,100.00
2024-02-17T06:47:47.754Z,100.00
2024-02-17T06:50:24.527Z,100.00
2024-02-17T06:52:54.120Z,100.00
2024-02-17T06:55:22.751Z,100.00
2024-02-17T06:57:51.140Z,100.00
2024-02-17T07:00:21.537Z,100.00
2024-02-17T07:02:49.959Z,100.00
2024-02-17T07:05:18.428Z,100.00
2024-02-17T07:07:47.021Z,100.00
2024-02-17T07:10:15.536Z,100.00
2024-02-17T07:12:44.069Z,100.00
2024-02-17T07:15:12.730Z,100.00
2024-02-17T07:17:43.758Z,100.00
2024-02-17T07:20:13.346Z,100.00
2024-02-17T07:22:41.720Z,100.00
2024-02-17T07:25:12.225Z,100.00
2024-02-17T07:27:41.652Z,100.00
2024-02-17T07:30:10.872Z,100.00
2024-02-17T07:32:41.554Z,100.00
2024-02-17T07:35:10.239Z,100.00
2024-02-17T07:37:38.727Z,100.00
2024-02-17T07:40:10.095Z,100.00
2024-02-17T07:42:38.720Z,100.00
2024-02-17T07:45:08.329Z,100.00
2024-02-17T07:47:36.756Z,100.00
2024-02-17T07:50:08.918Z,100.00
2024-02-17T07:52:37.866Z,100.00
2024-02-17T07:55:07.119Z,100.00
2024-02-17T07:57:36.519Z,100.00
2024-02-17T08:00:05.497Z,100.00
2024-02-17T08:02:34.005Z,100.00
2024-02-17T08:05:03.946Z,100.00
2024-02-17T08:07:36.320Z,100.00
2024-02-17T08:10:05.264Z,100.00
2024-02-17T08:12:33.760Z,100.00
2024-02-17T08:15:02.179Z,100.00
2024-02-17T08:17:30.923Z,100.00
2024-02-17T08:20:01.836Z,100.00
2024-02-17T08:22:34.626Z,100.00
2024-02-17T08:25:05.085Z,100.00
2024-02-17T08:27:36.919Z,99.76
2024-02-17T08:30:06.558Z,99.36
2024-02-17T08:32:35.047Z,98.82
2024-02-17T08:35:03.906Z,98.93
2024-02-17T08:37:33.861Z,98.36
2024-02-17T08:40:02.779Z,98.30
2024-02-17T08:42:31.268Z,98.01
2024-02-17T08:44:59.761Z,97.56
2024-02-17T08:47:28.208Z,97.22
2024-02-17T08:49:57.073Z,96.77
2024-02-17T08:52:25.588Z,96.51
2024-02-17T08:54:55.395Z,96.89
2024-02-17T08:57:23.979Z,97.13
2024-02-17T08:59:52.360Z,97.10
2024-02-17T09:02:20.788Z,96.54
2024-02-17T09:04:49.300Z,96.50
2024-02-17T09:07:17.822Z,96.09
2024-02-17T09:09:46.393Z,96.40
2024-02-17T09:12:16.407Z,96.63
2024-02-17T09:14:44.912Z,96.60
2024-02-17T09:17:13.384Z,96.61
2024-02-17T09:19:42.013Z,96.50
2024-02-17T09:22:11.022Z,96.34
2024-02-17T09:24:40.842Z,96.41
2024-02-17T09:27:10.458Z,96.03
2024-02-17T09:29:42.001Z,96.19
2024-02-17T09:32:11.041Z,96.34
2024-02-17T09:34:39.748Z,95.89
2024-02-17T09:37:10.178Z,95.86
2024-02-17T09:39:40.242Z,95.86
2024-02-17T09:42:09.403Z,95.82
2024-02-17T09:44:42.102Z,95.66
2024-02-17T09:47:10.667Z,95.61
2024-02-17T09:49:41.515Z,95.51
2024-02-17T09:52:10.510Z,95.65
2024-02-17T09:54:40.495Z,95.83
2024-02-17T09:57:09.073Z,95.72
2024-02-17T09:59:38.817Z,95.71
2024-02-17T10:02:10.671Z,95.77
2024-02-17T10:04:55.667Z,95.76
2024-02-17T10:07:24.583Z,95.76
2024-02-17T10:09:53.290Z,95.72
2024-02-17T10:12:21.887Z,95.82
2024-02-17T10:14:54.023Z,95.96
2024-02-17T10:17:24.763Z,96.04
2024-02-17T10:19:55.710Z,95.37
2024-02-17T10:22:24.229Z,95.21
2024-02-17T10:25:00.599Z,94.99
2024-02-17T10:27:29.797Z,94.88
2024-02-17T10:30:11.463Z,94.75
2024-02-17T10:32:40.863Z,94.60
2024-02-17T10:35:11.270Z,94.70
2024-02-17T10:37:41.572Z,94.42
2024-02-17T10:40:12.058Z,94.28
2024-02-17T10:42:40.498Z,94.31
2024-02-17T10:45:11.234Z,94.41
2024-02-17T10:47:40.121Z,94.30
2024-02-17T10:50:17.533Z,94.00
2024-02-17T10:52:49.381Z,93.95
2024-02-17T10:55:26.551Z,93.63
2024-02-17T10:58:00.079Z,93.62
2024-02-17T11:00:32.648Z,93.26
2024-02-17T11:03:06.797Z,93.43
2024-02-17T11:05:39.107Z,93.33
2024-02-17T11:08:09.150Z,92.96
2024-02-17T11:10:37.474Z,92.75
2024-02-17T11:13:22.138Z,92.23
2024-02-17T11:16:02.484Z,91.96
2024-02-17T11:18:34.262Z,91.31
2024-02-17T11:21:03.044Z,90.93
2024-02-17T11:23:35.328Z,90.57
2024-02-17T11:26:03.798Z,90.34
2024-02-17T11:28:34.396Z,90.46
2024-02-17T11:31:08.964Z,90.22
2024-02-17T11:33:39.305Z,89.44
2024-02-17T11:36:10.901Z,89.65
2024-02-17T11:38:39.986Z,89.60
2024-02-17T11:41:08.547Z,89.46
2024-02-17T11:43:37.977Z,89.70
2024-02-17T11:46:07.918Z,89.52
2024-02-17T11:48:36.597Z,89.03
2024-02-17T11:51:07.813Z,88.85
2024-02-17T11:53:43.126Z,87.92
2024-02-17T11:56:15.692Z,88.69
2024-02-17T11:58:45.896Z,88.49
2024-02-17T12:01:16.782Z,88.23
2024-02-17T12:03:47.093Z,88.12
2024-02-17T12:06:15.644Z,87.04
2024-02-17T12:08:44.090Z,85.83
2024-02-17T12:11:12.692Z,85.19
2024-02-17T12:13:41.026Z,84.46
2024-02-17T12:16:12.786Z,84.97
2024-02-17T12:18:43.751Z,84.91
2024-02-17T12:21:13.275Z,84.99
2024-02-17T12:23:44.481Z,85.20
2024-02-17T12:26:21.148Z,85.16
2024-02-17T12:28:56.809Z,85.38
2024-02-17T12:31:26.338Z,85.07
2024-02-17T12:33:56.343Z,84.89
2024-02-17T12:36:25.498Z,84.88
2024-02-17T12:39:00.250Z,84.15
2024-02-17T12:41:28.996Z,83.47
2024-02-17T12:43:57.823Z,83.18
2024-02-17T12:46:30.106Z,83.35
2024-02-17T12:49:01.059Z,83.52
2024-02-17T12:51:31.409Z,83.53
2024-02-17T12:54:00.453Z,82.97
2024-02-17T12:56:28.919Z,83.31
2024-02-17T12:58:58.771Z,83.15
2024-02-17T13:01:27.519Z,83.24
2024-02-17T13:03:55.936Z,83.17
2024-02-17T13:06:26.464Z,83.00
2024-02-17T13:08:57.625Z,83.01
2024-02-17T13:11:28.524Z,82.91
2024-02-17T13:13:57.926Z,83.13
2024-02-17T13:16:26.452Z,83.10
2024-02-17T13:18:58.162Z,82.56
2024-02-17T13:21:28.310Z,82.15
2024-02-17T13:23:56.664Z,82.05
2024-02-17T13:26:24.934Z,81.67
2024-02-17T13:28:53.370Z,81.38
2024-02-17T13:31:21.701Z,81.80
2024-02-17T13:33:50.532Z,82.22
2024-02-17T13:36:19.184Z,82.39
2024-02-17T13:38:48.934Z,82.28
2024-02-17T13:41:17.386Z,81.84
2024-02-17T13:43:49.474Z,81.73
2024-02-17T13:46:18.711Z,81.36
2024-02-17T13:48:47.803Z,80.64
2024-02-17T13:51:16.990Z,80.48
2024-02-17T13:53:47.740Z,79.61
2024-02-17T13:56:18.212Z,78.27
2024-02-17T13:58:46.656Z,78.18
2024-02-17T14:01:15.187Z,77.14
2024-02-17T14:03:43.772Z,76.34
2024-02-17T14:06:14.087Z,76.74
2024-02-17T14:08:42.569Z,76.13
2024-02-17T14:11:10.947Z,75.27
2024-02-17T14:13:40.891Z,75.61
2024-02-17T14:16:11.272Z,74.97
2024-02-17T14:18:39.778Z,74.87
2024-02-17T14:21:08.218Z,74.30
2024-02-17T14:23:36.754Z,74.37
2024-02-17T14:26:05.596Z,74.09
2024-02-17T14:28:33.953Z,73.79
2024-02-17T14:31:03.778Z,73.86
2024-02-17T14:33:32.659Z,74.08
2024-02-17T14:36:01.244Z,73.85
2024-02-17T14:38:29.610Z,73.87
2024-02-17T14:40:57.986Z,73.88
2024-02-17T14:43:26.345Z,74.21
2024-02-17T14:45:54.734Z,74.93
2024-02-17T14:48:24.747Z,75.18
2024-02-17T14:50:53.279Z,74.85
2024-02-17T14:53:22.948Z,75.27
2024-02-17T14:55:52.922Z,74.94
2024-02-17T14:58:21.283Z,75.64
2024-02-17T15:00:50.026Z,75.89
2024-02-17T15:03:18.419Z,75.25
2024-02-17T15:05:48.475Z,75.00
2024-02-17T15:08:18.646Z,74.54
2024-02-17T15:10:47.157Z,73.80
2024-02-17T15:13:15.818Z,73.43
2024-02-17T15:15:49.780Z,73.29
2024-02-17T15:18:19.223Z,73.64
2024-02-17T15:20:49.366Z,73.09
2024-02-17T15:23:17.676Z,73.01
2024-02-17T15:25:46.671Z,72.97
2024-02-17T15:28:15.169Z,72.72
2024-02-17T15:30:46.002Z,72.23
2024-02-17T15:33:14.797Z,72.55
2024-02-17T15:35:44.615Z,72.73
2024-02-17T15:38:15.481Z,72.63
2024-02-17T15:40:44.212Z,73.10
2024-02-17T15:43:13.237Z,72.96
2024-02-17T15:45:42.614Z,72.81
2024-02-17T15:48:11.087Z,72.78
2024-02-17T15:50:39.429Z,72.84
2024-02-17T15:53:09.518Z,73.27
2024-02-17T15:55:39.278Z,73.63
2024-02-17T15:58:07.735Z,73.42
2024-02-17T16:00:36.271Z,73.95
2024-02-17T16:03:05.274Z,74.04
2024-02-17T16:05:35.539Z,74.04
2024-02-17T16:08:04.404Z,74.06
2024-02-17T16:10:32.879Z,74.29
2024-02-17T16:13:02.649Z,74.26
2024-02-17T16:15:32.810Z,74.52
2024-02-17T16:18:01.365Z,74.70
2024-02-17T16:20:30.515Z,74.72
2024-02-17T16:22:58.872Z,75.18
2024-02-17T16:25:27.311Z,75.45
2024-02-17T16:27:55.754Z,75.63
2024-02-17T16:30:25.584Z,75.93
2024-02-17T16:32:53.964Z,76.20
2024-02-17T16:35:22.532Z,76.24
2024-02-17T16:37:50.968Z,76.35
2024-02-17T16:40:19.738Z,76.54
2024-02-17T16:42:48.115Z,76.59
2024-02-17T16:45:17.396Z,76.61
2024-02-17T16:47:48.365Z,76.81
2024-02-17T16:50:16.858Z,77.20
2024-02-17T16:52:45.279Z,77.74
2024-02-17T16:55:13.620Z,77.83
2024-02-17T16:57:42.076Z,77.83
2024-02-17T17:00:12.206Z,77.95
2024-02-17T17:02:40.640Z,78.08
2024-02-17T17:05:11.506Z,77.95
2024-02-17T17:07:40.112Z,77.98
2024-02-17T17:10:10.540Z,78.19
2024-02-17T17:12:38.990Z,78.37
2024-02-17T17:15:09.997Z,78.32
2024-02-17T17:17:38.905Z,78.64
2024-02-17T17:20:11.167Z,78.99
2024-02-17T17:22:43.515Z,79.05
2024-02-17T17:25:16.421Z,79.15
2024-02-17T17:27:45.056Z,79.28
2024-02-17T17:30:15.075Z,79.54
2024-02-17T17:32:43.460Z,79.83
2024-02-17T17:35:14.656Z,79.99
2024-02-17T17:37:43.029Z,80.42
2024-02-17T17:40:12.233Z,80.92
2024-02-17T17:42:52.521Z,81.35
2024-02-17T17:45:25.291Z,81.83
2024-02-17T17:47:53.876Z,82.32
2024-02-17T17:50:24.450Z,83.08
2024-02-17T17:52:54.811Z,84.06
2024-02-17T17:55:24.123Z,84.97
2024-02-17T17:57:52.916Z,86.00
2024-02-17T18:00:22.341Z,86.37
2024-02-17T18:02:52.365Z,87.06
2024-02-17T18:05:20.887Z,87.60
2024-02-17T18:07:50.978Z,88.47
2024-02-17T18:10:21.273Z,90.06
2024-02-17T18:12:49.595Z,90.82
2024-02-17T18:15:18.104Z,91.49
2024-02-17T18:17:46.519Z,92.16
2024-02-17T18:20:14.879Z,92.28
2024-02-17T18:22:43.784Z,92.96
2024-02-17T18:25:15.083Z,93.35
2024-02-17T18:27:43.528Z,94.29
2024-02-17T18:30:13.642Z,94.50
2024-02-17T18:32:42.119Z,95.22
2024-02-17T18:35:10.791Z,95.76
2024-02-17T18:37:39.227Z,95.86
2024-02-17T18:40:09.681Z,96.33
2024-02-17T18:42:39.404Z,97.00
2024-02-17T18:45:09.800Z,97.20
2024-02-17T18:47:39.995Z,97.49
2024-02-17T18:50:09.947Z,97.86
2024-02-17T18:52:38.398Z,97.94
2024-02-17T18:55:07.402Z,97.96
2024-02-17T18:57:35.745Z,98.02
2024-02-17T19:00:06.938Z,98.15
2024-02-17T19:02:35.232Z,98.13
2024-02-17T19:05:03.613Z,98.33
2024-02-17T19:07:31.927Z,98.11
2024-02-17T19:10:00.313Z,98.62
2024-02-17T19:12:28.737Z,98.91
2024-02-17T19:14:57.067Z,99.96
2024-02-17T19:17:26.700Z,100.00
2024-02-17T19:19:55.006Z,100.00
2024-02-17T19:22:23.430Z,100.00
2024-02-17T19:24:53.154Z,100.00
2024-02-17T19:27:21.745Z,100.00
2024-02-17T19:29:50.065Z,100.00
2024-02-17T19:32:18.411Z,100.00
2024-02-17T19:34:48.347Z,100.00
2024-02-17T19:37:17.069Z,100.00
2024-02-17T19:39:45.454Z,100.00
2024-02-17T19:42:15.804Z,100.00
2024-02-17T19:44:44.276Z,100.00
2024-02-17T19:47:15.881Z,100.00
2024-02-17T19:49:44.326Z,100.00
2024-02-17T19:52:14.125Z,100.00
2024-02-17T19:54:43.187Z,100.00
2024-02-17T19:57:11.601Z,100.00
2024-02-17T19:59:40.067Z,100.00
2024-02-17T20:02:08.632Z,100.00
2024-02-17T20:04:38.794Z,100.00
2024-02-17T20:07:07.458Z,100.00
2024-02-17T20:09:37.165Z,100.00
2024-02-17T20:12:06.715Z,100.00
2024-02-17T20:14:35.747Z,100.00
2024-02-17T20:17:06.179Z,100.00
2024-02-17T20:19:34.625Z,100.00
2024-02-17T20:22:04.411Z,100.00
2024-02-17T20:24:32.859Z,100.00
2024-02-17T20:27:02.571Z,100.00
2024-02-17T20:29:30.966Z,100.00
2024-02-17T20:31:59.292Z,100.00
2024-02-17T20:34:27.817Z,100.00
2024-02-17T20:36:57.727Z,100.00
2024-02-17T20:39:26.208Z,100.00
2024-02-17T20:41:54.561Z,100.00
2024-02-17T20:44:24.977Z,100.00
2024-02-17T20:46:55.092Z,100.00
2024-02-17T20:49:23.602Z,100.00
2024-02-17T20:51:52.285Z,100.00
2024-02-17T20:54:21.373Z,100.00
2024-02-17T20:56:49.910Z,100.00
2024-02-17T20:59:21.912Z,100.00
2024-02-17T21:01:52.214Z,100.00
2024-02-17T21:04:20.715Z,100.00
2024-02-17T21:06:49.312Z,100.00
2024-02-17T21:09:17.749Z,100.00
2024-02-17T21:11:46.434Z,100.00
2024-02-17T21:14:14.923Z,100.00
2024-02-17T21:16:43.781Z,100.00
2024-02-17T21:19:13.801Z,100.00
2024-02-17T21:21:42.306Z,100.00
2024-02-17T21:24:10.694Z,100.00
2024-02-17T21:26:39.682Z,100.00
2024-02-17T21:29:08.462Z,100.00
2024-02-17T21:31:37.908Z,100.00
2024-02-17T21:34:06.597Z,100.00
2024-02-17T21:36:40.917Z,100.00
2024-02-17T21:39:11.026Z,100.00
2024-02-17T21:41:39.479Z,100.00
2024-02-17T21:44:08.559Z,100.00
2024-02-17T21:46:36.864Z,100.00
2024-02-17T21:49:06.322Z,100.00
2024-02-17T21:51:36.315Z,100.00
2024-02-17T21:54:04.910Z,100.00
2024-02-17T21:56:33.229Z,100.00
2024-02-17T21:59:01.556Z,100.00
2024-02-17T22:01:30.243Z,100.00
2024-02-17T22:03:58.754Z,100.00
2024-02-17T22:06:27.584Z,100.00
2024-02-17T22:08:57.338Z,100.00
2024-02-17T22:11:25.720Z,100.00
2024-02-17T22:13:54.050Z,100.00
2024-02-17T22:16:22.347Z,100.00
2024-02-17T22:18:50.746Z,100.00
2024-02-17T22:21:25.910Z,100.00
2024-02-17T22:23:55.846Z,100.00
2024-02-17T22:26:24.561Z,100.00
2024-02-17T22:28:52.821Z,100.00
2024-02-17T22:31:27.978Z,100.00
2024-02-17T22:33:56.473Z,100.00
2024-02-17T22:36:24.954Z,100.00
2024-02-17T22:38:53.264Z,100.00
2024-02-17T22:41:22.979Z,100.00
2024-02-17T22:43:51.403Z,100.00
2024-02-17T22:46:19.688Z,100.00
2024-02-17T22:48:48.261Z,100.00
2024-02-17T22:51:17.037Z,100.00
2024-02-17T22:53:45.538Z,100.00
2024-02-17T22:56:15.660Z,100.00
2024-02-17T22:58:46.130Z,100.00
2024-02-17T23:01:15.451Z,100.00
2024-02-17T23:03:43.964Z,100.00
2024-02-17T23:06:13.514Z,100.00
2024-02-17T23:08:41.953Z,100.00
2024-02-17T23:11:10.396Z,100.00
2024-02-17T23:13:39.126Z,100.00
2024-02-17T23:16:09.525Z,100.00
2024-02-17T23:18:38.056Z,100.00
2024-02-17T23:21:09.508Z,100.00
2024-02-17T23:23:38.107Z,100.00
2024-02-17T23:26:07.741Z,100.00
2024-02-17T23:28:36.070Z,100.00
2024-02-17T23:31:04.769Z,100.00
2024-02-17T23:33:34.605Z,100.00
2024-02-17T23:36:03.034Z,100.00
2024-02-17T23:38:31.374Z,100.00
2024-02-17T23:40:59.655Z,100.00
2024-02-17T23:43:27.980Z,100.00
2024-02-17T23:45:56.327Z,100.00
2024-02-17T23:48:24.955Z,100.00
2024-02-17T23:50:54.686Z,100.00
2024-02-17T23:53:23.079Z,100.00
2024-02-17T23:55:51.415Z,100.00
2024-02-17T23:58:19.689Z,100.00
